Terminal Aerodrome Forecast
Issued by NWS

Current Version | Previous Version | Graphics & Text | Print | Product List | Glossary On
Versions: 1 2 3 4 5 6 7 8 9 10 11 12 13 14 15 16 17
000
FTUS41 KPBZ 012012 AAA
TAFMGW
TAF AMD
KMGW 012012Z 0120/0218 26008KT P6SM BKN030
     FM020100 25008KT P6SM OVC035
     FM020700 24005KT P6SM OVC025=

USA.gov is the U.S. government's official web portal to all federal, state and local government web resources and services.